Time;durP1;ratioP1;P1;durP2;ratioP2;P2;SDS_P1;SDS_P2;PMS_P1;PMS_P2;Temp;Humidity;BMP_temperature;BMP_pressure;BME280_temperature;BME280_humidity;BME280_pressure;Samples;Min_cycle;Max_cycle;Signal;HPM_P1;HPM_P2
2023/09/04 00:15:20;;;;;;;2.90;2.60;;;;;;;22.14;46.11;100938.56;41757503;28;20499;-77
2023/09/04 00:35:21;;;;;;;2.85;2.65;;;;;;;22.32;45.53;100968.06;41725511;28;20047;-77
2023/09/04 00:55:23;;;;;;;3.33;2.25;;;;;;;22.39;45.03;100940.28;41770790;28;20052;-77
2023/09/04 01:15:26;;;;;;;4.22;2.90;;;;;;;21.85;46.60;100930.97;41787062;28;20053;-76
2023/09/04 01:35:30;;;;;;;4.50;2.92;;;;;;;21.97;46.43;100951.19;41774877;28;20194;-77
2023/09/04 01:55:30;;;;;;;2.88;2.33;;;;;;;21.83;46.40;100972.44;41770139;28;20058;-75
2023/09/04 02:15:31;;;;;;;4.57;2.45;;;;;;;21.69;46.68;100960.22;41781957;28;20106;-77
2023/09/04 02:35:31;;;;;;;2.63;2.40;;;;;;;21.67;46.51;101006.94;41791824;28;20131;-76
2023/09/04 02:55:32;;;;;;;2.65;2.42;;;;;;;21.43;46.76;100968.13;41772886;28;20419;-77
2023/09/04 03:15:32;;;;;;;4.88;2.85;;;;;;;21.33;46.84;101002.16;41761631;28;20041;-77
2023/09/04 03:35:33;;;;;;;3.40;3.10;;;;;;;21.07;47.45;100969.72;41755248;28;20480;-76
2023/09/04 03:55:33;;;;;;;5.50;3.08;;;;;;;21.20;47.06;101003.94;41767653;28;20385;-78
2023/09/04 04:15:38;;;;;;;6.53;2.70;;;;;;;22.95;45.54;101010.94;41796138;28;20447;-85
2023/09/04 04:35:39;;;;;;;3.42;2.50;;;;;;;23.01;45.85;101030.78;41751668;28;20071;-77
2023/09/04 04:55:39;;;;;;;29.92;3.53;;;;;;;22.71;47.64;101024.16;41782328;28;20045;-79
2023/09/04 05:15:40;;;;;;;15.20;3.47;;;;;;;22.96;46.93;101061.94;41741033;28;20068;-76
2023/09/04 05:35:40;;;;;;;14.27;3.63;;;;;;;23.21;47.21;101090.03;41791159;28;21278;-76
2023/09/04 05:55:42;;;;;;;9.35;3.33;;;;;;;23.07;47.00;101077.00;41779561;28;20440;-74
2023/09/04 06:15:43;;;;;;;9.77;3.47;;;;;;;22.98;46.91;101038.91;41764828;28;20059;-74
2023/09/04 06:35:43;;;;;;;4.15;2.90;;;;;;;23.28;46.88;101080.69;41784365;28;20094;-73
2023/09/04 06:55:48;;;;;;;6.70;2.95;;;;;;;23.32;46.86;101113.03;41784150;28;20049;-75
2023/09/04 07:15:49;;;;;;;7.97;3.00;;;;;;;23.45;46.83;101128.81;41785535;28;20122;-75
2023/09/04 07:35:55;;;;;;;8.38;2.65;;;;;;;23.43;47.79;101101.66;41777660;28;20103;-77
2023/09/04 07:55:56;;;;;;;4.20;2.40;;;;;;;23.44;48.13;101095.41;41796533;28;20077;-75
2023/09/04 08:15:56;;;;;;;3.42;2.25;;;;;;;23.35;48.08;101089.00;41770618;28;20064;-76
2023/09/04 08:35:57;;;;;;;3.83;2.10;;;;;;;23.57;47.39;101111.16;41765683;28;20044;-76
2023/09/04 08:55:57;;;;;;;9.48;3.20;;;;;;;23.64;47.46;101117.66;41764117;28;20045;-76
2023/09/04 09:15:58;;;;;;;3.28;1.95;;;;;;;23.54;40.04;101079.69;41789287;28;20049;-75
2023/09/04 09:35:58;;;;;;;1.90;1.65;;;;;;;23.75;38.79;101096.50;41797694;28;20056;-74
2023/09/04 09:55:59;;;;;;;3.08;1.50;;;;;;;23.77;39.21;101086.66;41808899;28;20075;-76
2023/09/04 10:16:02;;;;;;;2.92;1.77;;;;;;;23.89;36.88;101076.94;41807550;28;20708;-75
2023/09/04 10:36:03;;;;;;;4.57;1.50;;;;;;;23.98;36.87;101073.59;41793466;28;20044;-74
2023/09/04 10:56:11;;;;;;;3.90;1.60;;;;;;;24.14;37.00;101062.66;41793393;28;20053;-75
2023/09/04 11:16:14;;;;;;;1.50;1.40;;;;;;;24.19;36.77;101051.69;41782938;28;20052;-75
2023/09/04 11:36:15;;;;;;;1.90;1.65;;;;;;;24.34;37.16;101062.88;41792366;28;20045;-76
2023/09/04 11:56:16;;;;;;;3.65;1.60;;;;;;;24.41;37.38;101037.59;41794736;28;20045;-77
2023/09/04 12:16:19;;;;;;;1.92;1.70;;;;;;;24.68;36.04;101046.06;41759545;28;20084;-76
2023/09/04 12:36:21;;;;;;;3.13;1.70;;;;;;;24.58;35.42;101012.41;41787429;28;20056;-77
2023/09/04 12:56:22;;;;;;;2.55;1.65;;;;;;;24.61;37.08;100996.25;41769009;28;20051;-76
2023/09/04 13:16:23;;;;;;;3.50;1.60;;;;;;;24.41;36.11;100952.03;41770954;28;20048;-77
2023/09/04 13:36:24;;;;;;;1.73;1.50;;;;;;;24.37;35.39;100959.38;41782314;28;20041;-76
2023/09/04 13:56:24;;;;;;;5.55;1.70;;;;;;;24.28;34.81;100900.13;41804035;28;21438;-75
2023/09/04 14:16:24;;;;;;;6.53;1.80;;;;;;;24.90;35.00;100947.97;41820294;28;20045;-77
2023/09/04 14:36:25;;;;;;;4.70;1.70;;;;;;;24.57;34.52;100923.34;41778666;28;20198;-82
2023/09/04 14:56:26;;;;;;;8.50;2.50;;;;;;;25.03;34.25;100957.53;41738442;28;20572;-75
2023/09/04 15:16:27;;;;;;;4.97;2.22;;;;;;;24.86;34.53;100940.41;41778842;28;20605;-79
2023/09/04 15:36:28;;;;;;;4.72;1.77;;;;;;;24.98;34.60;100978.28;41761667;28;20049;-76
2023/09/04 15:56:28;;;;;;;1.85;1.50;;;;;;;25.09;34.29;100973.72;41769690;28;20037;-76
2023/09/04 16:16:29;;;;;;;4.22;1.75;;;;;;;24.79;34.93;100985.09;41728247;28;20164;-78
2023/09/04 16:36:32;;;;;;;2.75;1.90;;;;;;;24.91;35.16;101020.31;41751849;28;20503;-76
2023/09/04 16:56:33;;;;;;;2.65;1.80;;;;;;;24.29;36.23;100997.06;41745393;28;20052;-77
2023/09/04 17:16:34;;;;;;;5.80;1.92;;;;;;;24.06;36.83;101009.50;41732155;28;20071;-74
2023/09/04 17:36:34;;;;;;;3.40;1.92;;;;;;;24.20;37.43;101042.78;41783012;28;20053;-75
2023/09/04 17:56:35;;;;;;;5.80;2.70;;;;;;;23.74;38.48;101060.47;41767841;28;20048;-75
2023/09/04 18:16:36;;;;;;;5.90;2.50;;;;;;;23.96;39.04;101072.91;41768440;28;20041;-77
2023/09/04 18:36:37;;;;;;;4.00;2.10;;;;;;;23.02;40.03;101082.63;41786417;28;20041;-77
2023/09/04 18:56:39;;;;;;;2.60;2.20;;;;;;;23.84;38.59;101057.97;41777878;28;20516;-78
2023/09/04 19:16:41;;;;;;;9.88;2.80;;;;;;;23.65;39.05;101101.66;41721348;28;20044;-71
2023/09/04 19:36:42;;;;;;;9.90;2.50;;;;;;;24.09;39.42;101107.16;41722007;28;20045;-76
2023/09/04 19:56:45;;;;;;;6.22;2.33;;;;;;;23.67;40.54;101036.31;41754569;28;20041;-78
2023/09/04 20:16:46;;;;;;;9.40;2.60;;;;;;;23.91;42.80;101090.91;41733894;28;20037;-77
2023/09/04 20:36:48;;;;;;;3.67;2.45;;;;;;;24.02;42.23;101103.28;41764747;28;20303;-76
2023/09/04 20:56:49;;;;;;;2.63;2.30;;;;;;;23.95;41.89;101126.75;41769774;28;20074;-78
2023/09/04 23:45:07;;;;;;;2.25;2.05;;;;;;;23.82;41.94;101113.59;41756763;28;20122;-75
2023/09/04 23:59:29;;;;;;;2.58;2.03;;;;;;;23.65;42.04;101077.88;41753807;28;20033;-75
